Time;durP1;ratioP1;P1;durP2;ratioP2;P2;SDS_P1;SDS_P2;PMS_P1;PMS_P2;Temp;Humidity;BMP_temperature;BMP_pressure;BME280_temperature;BME280_humidity;BME280_pressure;Samples;Min_cycle;Max_cycle;Signal;HPM_P1;HPM_P2
2021/11/07 06:59:55;;;;;;;1.90;1.33;;;;;;;;;;5093219;27;1324507;-76
2021/11/07 07:02:21;;;;;;;2.78;1.10;;;;;;;;;;5131990;28;20092;-77
2021/11/07 07:04:48;;;;;;;1.80;1.33;;;;;;;;;;5130730;28;20084;-76
2021/11/07 07:07:14;;;;;;;2.40;1.30;;;;;;;;;;5131986;27;20024;-79
2021/11/07 07:09:46;;;;;;;2.50;1.40;;;;;;;;;;5130477;27;20043;-78
2021/11/07 07:15:00;;;;;;;1.60;1.20;;;;;;;;;;5131797;27;20029;-78
2021/11/07 08:42:50;;;;;;;2.65;2.40;;;;;;;;;;4918282;29;20091;-76
2021/11/07 12:08:17;;;;;;;1.85;1.75;;;;;;;;;;4890312;29;20063;-82
2021/11/07 12:13:48;;;;;;;1.98;1.73;;;;;;;;;;4864633;29;20065;-79
2021/11/07 12:16:19;;;;;;;1.63;1.52;;;;;;;;;;4863799;29;20074;-77
2021/11/07 12:18:59;;;;;;;1.30;1.20;;;;;;;;;;4863774;29;20120;-76
2021/11/07 12:21:45;;;;;;;1.73;1.55;;;;;;;;;;4863813;29;20480;-78
2021/11/07 12:24:10;;;;;;;1.35;1.25;;;;;;;;;;4862152;29;20492;-77
2021/11/07 12:26:36;;;;;;;1.00;0.90;;;;;;;;;;4863609;29;20030;-77
2021/11/07 12:29:01;;;;;;;1.17;0.93;;;;;;;;;;4863920;29;20025;-78
2021/11/07 12:31:27;;;;;;;1.15;1.00;;;;;;;;;;4863843;29;20048;-78
2021/11/07 12:42:19;;;;;;;1.08;1.00;;;;;;;;;;4863589;29;20508;-80
2021/11/07 12:44:49;;;;;;;1.63;1.15;;;;;;;;;;4862994;29;20029;-80
2021/11/07 12:47:15;;;;;;;;;;;;;;;;;;4863990;29;20031;-78
2021/11/07 12:49:40;;;;;;;1.40;1.00;;;;;;;;;;4863122;29;19920;-79
2021/11/07 12:52:16;;;;;;;2.10;1.00;;;;;;;;;;4863243;29;20030;-78
2021/11/07 12:54:43;;;;;;;1.48;1.30;;;;;;;;;;4861951;29;20085;-79
2021/11/07 12:57:11;;;;;;;3.42;2.20;;;;;;;;;;4863368;29;20026;-81
2021/11/07 12:59:58;;;;;;;1.90;1.55;;;;;;;;;;4863164;29;20040;-82
2021/11/07 13:02:28;;;;;;;1.90;1.40;;;;;;;;;;4863119;29;20030;-81
2021/11/07 13:05:00;;;;;;;2.92;2.55;;;;;;;;;;4863135;29;20021;-79
2021/11/07 13:27:15;;;;;;;2.40;1.73;;;;;;;;;;4806002;29;20034;-82
2021/11/07 13:32:18;;;;;;;1.42;1.30;;;;;;;;;;4881187;29;20029;-79
2021/11/07 13:35:02;;;;;;;4.03;1.23;;;;;;;;;;4880863;29;20029;-78
2021/11/07 13:37:48;;;;;;;3.35;1.20;;;;;;;;;;4881050;29;20604;-79
2021/11/07 13:40:23;;;;;;;1.33;1.10;;;;;;;;;;4881144;29;20421;-78
2021/11/07 13:42:49;;;;;;;1.70;1.30;;;;;;;;;;4864061;29;20457;-79
2021/11/07 13:45:22;;;;;;;1.20;0.98;;;;;;;;;;4880905;29;20067;-78
2021/11/07 13:47:50;;;;;;;2.28;0.95;;;;;;;;;;4880832;29;20445;-79
2021/11/07 13:50:20;;;;;;;1.38;1.00;;;;;;;;;;4880802;29;20433;-78
2021/11/07 13:52:46;;;;;;;1.13;1.00;;;;;;;;;;4881065;29;20037;-79
2021/11/07 13:55:18;;;;;;;1.10;1.00;;;;;;;;;;4880377;29;20029;-75
2021/11/07 13:57:44;;;;;;;3.08;0.90;;;;;;;;;;4880749;29;20025;-75
2021/11/07 14:00:14;;;;;;;1.40;0.93;;;;;;;;;;4880737;29;20033;-75
2021/11/07 14:02:54;;;;;;;2.47;1.20;;;;;;;;;;4880501;29;20057;-75
2021/11/07 14:05:21;;;;;;;1.40;1.30;;;;;;;;;;4880432;29;20040;-79
2021/11/07 14:08:03;;;;;;;1.58;1.30;;;;;;;;;;4879890;29;20060;-81
2021/11/07 14:10:31;;;;;;;1.40;1.27;;;;;;;;;;4863858;29;20044;-78
2021/11/07 14:12:58;;;;;;;2.08;1.65;;;;;;;;;;4880327;29;20028;-76
2021/11/07 14:15:30;;;;;;;1.75;1.15;;;;;;;;;;4880321;29;20028;-76
2021/11/07 14:18:08;;;;;;;2.00;1.50;;;;;;;;;;4880249;29;20025;-78
2021/11/07 14:20:36;;;;;;;3.38;1.50;;;;;;;;;;4880422;29;20108;-78
2021/11/07 14:23:13;;;;;;;2.55;1.67;;;;;;;;;;4880380;29;20048;-76
2021/11/07 14:25:50;;;;;;;2.58;2.38;;;;;;;;;;4880436;29;20093;-76
2021/11/07 14:28:22;;;;;;;2.00;1.90;;;;;;;;;;4880192;29;20021;-78
2021/11/07 14:30:49;;;;;;;2.25;2.05;;;;;;;;;;4880270;29;20036;-78
2021/11/07 14:33:25;;;;;;;2.05;1.90;;;;;;;;;;4863355;29;20105;-77
2021/11/07 14:35:52;;;;;;;1.90;1.70;;;;;;;;;;4880141;29;20533;-78
2021/11/07 14:38:24;;;;;;;1.52;1.20;;;;;;;;;;4880024;29;20460;-77
2021/11/07 14:43:40;;;;;;;2.67;1.50;;;;;;;;;;4879988;29;20029;-79
2021/11/07 14:46:26;;;;;;;3.42;1.10;;;;;;;;;;4879808;29;20033;-80
2021/11/07 14:51:58;;;;;;;1.95;1.40;;;;;;;;;;4880014;29;20072;-78
2021/11/07 15:00:10;;;;;;;1.38;1.27;;;;;;;;;;4879789;29;20044;-77
2021/11/07 15:02:42;;;;;;;1.73;1.10;;;;;;;;;;4880025;29;20032;-80
2021/11/07 15:21:47;;;;;;;1.67;1.35;;;;;;;;;;4880849;29;20037;-74
2021/11/07 15:24:15;;;;;;;;;;;;;;;;;;4859320;29;20029;-78
2021/11/07 15:26:51;;;;;;;2.67;2.10;;;;;;;;;;4883216;29;19926;-77
2021/11/07 15:29:22;;;;;;;2.95;2.33;;;;;;;;;;4866453;29;20385;-78
2021/11/07 15:32:09;;;;;;;5.10;2.85;;;;;;;;;;4883118;29;20056;-79
2021/11/07 15:34:38;;;;;;;2.03;1.50;;;;;;;;;;4864974;29;20056;-81
2021/11/07 15:37:06;;;;;;;1.40;1.30;;;;;;;;;;4882994;29;20025;-82
2021/11/07 15:39:46;;;;;;;1.33;1.10;;;;;;;;;;4883318;29;20332;-80
2021/11/07 15:42:17;;;;;;;3.33;2.65;;;;;;;;;;4878973;29;20392;-77
2021/11/07 15:44:53;;;;;;;4.07;1.73;;;;;;;;;;4874381;29;20092;-77
2021/11/07 15:47:28;;;;;;;1.52;1.15;;;;;;;;;;4868986;29;20438;-78
2021/11/07 16:06:06;;;;;;;1.65;1.20;;;;;;;;;;4882554;29;20065;-78
2021/11/07 16:11:27;;;;;;;1.45;0.90;;;;;;;;;;4882846;29;20036;-79
2021/11/07 16:19:18;;;;;;;3.28;2.00;;;;;;;;;;4882296;29;20493;-80
2021/11/07 16:21:47;;;;;;;4.00;3.20;;;;;;;;;;4882163;29;20029;-79
2021/11/07 16:24:13;;;;;;;3.83;2.72;;;;;;;;;;4882287;29;20033;-78
2021/11/07 16:26:39;;;;;;;3.45;2.97;;;;;;;;;;4865569;29;20468;-79
2021/11/07 16:29:05;;;;;;;5.68;4.07;;;;;;;;;;4882240;29;20388;-79
2021/11/07 16:31:36;;;;;;;3.40;2.40;;;;;;;;;;4881852;29;20109;-79
2021/11/07 16:34:07;;;;;;;7.50;3.70;;;;;;;;;;4868822;29;20381;-78
2021/11/07 16:36:37;;;;;;;4.35;2.55;;;;;;;;;;4866134;29;20460;-78
2021/11/07 16:39:17;;;;;;;6.35;3.30;;;;;;;;;;4881766;29;20459;-78
2021/11/07 16:41:47;;;;;;;7.53;5.43;;;;;;;;;;4872352;29;20033;-78
2021/11/07 16:44:15;;;;;;;1.83;1.60;;;;;;;;;;4863219;29;20465;-79
2021/11/07 16:46:46;;;;;;;3.05;1.80;;;;;;;;;;4863093;29;20370;-79
2021/11/07 16:49:13;;;;;;;2.80;1.88;;;;;;;;;;4864698;29;20025;-78
2021/11/07 16:51:55;;;;;;;2.25;1.60;;;;;;;;;;4881580;29;20481;-77
2021/11/07 16:54:27;;;;;;;4.63;2.42;;;;;;;;;;4881718;29;20040;-78
2021/11/07 16:56:53;;;;;;;4.82;2.90;;;;;;;;;;4881392;29;20092;-78
2021/11/07 17:04:19;;;;;;;88.93;43.88;;;;;;;;;;4881601;29;20040;-78
2021/11/07 17:06:58;;;;;;;2.42;1.70;;;;;;;;;;4875963;29;20032;-78
2021/11/07 17:09:34;;;;;;;4.10;2.50;;;;;;;;;;4862512;29;20401;-79
2021/11/07 17:12:08;;;;;;;4.95;3.80;;;;;;;;;;4862913;29;20034;-78
2021/11/07 17:14:34;;;;;;;2.80;2.13;;;;;;;;;;4845867;29;20058;-78
2021/11/07 17:17:07;;;;;;;4.13;2.75;;;;;;;;;;4862903;29;20034;-78
2021/11/07 17:19:38;;;;;;;8.48;6.13;;;;;;;;;;4862468;29;20041;-78
2021/11/07 17:25:06;;;;;;;4.28;3.20;;;;;;;;;;4821378;29;20064;-78
2021/11/07 17:28:04;;;;;;;6.38;3.78;;;;;;;;;;4875984;29;20068;-78
2021/11/07 17:30:44;;;;;;;7.55;4.70;;;;;;;;;;4879831;29;20469;-77
2021/11/07 17:33:14;;;;;;;3.55;1.98;;;;;;;;;;4880620;29;20527;-79
2021/11/07 17:44:45;;;;;;;2.97;1.77;;;;;;;;;;4881171;29;20032;-79
2021/11/07 17:49:33;;;;;;;2.17;1.42;;;;;;;;;;4880986;29;20077;-81
2021/11/07 17:54:46;;;;;;;1.50;1.30;;;;;;;;;;4880710;29;20457;-81
2021/11/07 17:57:16;;;;;;;2.42;1.00;;;;;;;;;;4880651;29;20575;-79
2021/11/07 17:59:42;;;;;;;3.70;1.40;;;;;;;;;;4880202;29;20051;-81
2021/11/07 18:02:10;;;;;;;1.50;1.40;;;;;;;;;;4880482;29;20104;-80
2021/11/07 18:04:37;;;;;;;3.00;2.70;;;;;;;;;;4880437;29;20029;-82
2021/11/07 18:09:34;;;;;;;2.83;1.93;;;;;;;;;;4880768;29;20423;-83
2021/11/07 18:12:01;;;;;;;3.47;1.60;;;;;;;;;;4880364;29;20029;-81
2021/11/07 18:14:27;;;;;;;2.63;2.30;;;;;;;;;;4880336;29;20029;-78
2021/11/07 18:16:55;;;;;;;2.42;1.83;;;;;;;;;;4863740;29;20033;-80
2021/11/07 18:19:20;;;;;;;3.95;2.80;;;;;;;;;;4880357;29;20040;-83
2021/11/07 18:22:31;;;;;;;4.57;3.13;;;;;;;;;;4863619;29;20029;-83
2021/11/07 18:24:37;;;;;;;4.37;2.47;;;;;;;;;;4872716;29;20037;-78
2021/11/07 18:27:09;;;;;;;3.47;2.72;;;;;;;;;;4880096;29;20053;-80
2021/11/07 18:29:41;;;;;;;3.13;2.30;;;;;;;;;;4880122;29;20032;-81
2021/11/07 18:32:06;;;;;;;2.97;2.03;;;;;;;;;;4880303;29;20112;-80
2021/11/07 18:34:32;;;;;;;2.95;2.28;;;;;;;;;;4880319;29;20182;-81
2021/11/07 18:36:57;;;;;;;2.88;2.08;;;;;;;;;;4879907;29;20052;-79
2021/11/07 18:39:26;;;;;;;5.95;4.60;;;;;;;;;;4879698;29;20548;-81
2021/11/07 18:41:52;;;;;;;3.58;2.67;;;;;;;;;;4879950;29;20025;-79
2021/11/07 18:44:18;;;;;;;5.30;3.47;;;;;;;;;;4879781;29;20088;-77
2021/11/07 18:46:44;;;;;;;4.18;2.60;;;;;;;;;;4863226;29;20021;-79
2021/11/07 18:49:10;;;;;;;4.90;2.40;;;;;;;;;;4880208;29;20124;-84
2021/11/07 18:51:36;;;;;;;6.35;3.47;;;;;;;;;;4862876;29;20477;-79
2021/11/07 18:54:02;;;;;;;3.58;2.47;;;;;;;;;;4862800;29;20029;-79
2021/11/07 18:56:28;;;;;;;7.43;5.07;;;;;;;;;;4879775;29;20358;-78
2021/11/07 18:58:54;;;;;;;3.63;2.95;;;;;;;;;;4879785;29;20029;-78
2021/11/07 19:01:20;;;;;;;4.50;3.58;;;;;;;;;;4879728;29;20392;-78
2021/11/07 19:03:49;;;;;;;3.10;2.20;;;;;;;;;;4879732;29;20029;-77
2021/11/07 19:06:15;;;;;;;5.50;4.28;;;;;;;;;;4879788;29;20594;-76
2021/11/07 19:08:40;;;;;;;6.00;3.85;;;;;;;;;;4879786;29;20049;-78
2021/11/07 19:11:06;;;;;;;5.03;2.80;;;;;;;;;;4879626;29;20037;-80
2021/11/07 19:13:32;;;;;;;4.28;3.05;;;;;;;;;;4879582;29;20053;-76
2021/11/07 19:15:57;;;;;;;3.72;2.50;;;;;;;;;;4879526;29;20068;-79
2021/11/07 19:18:25;;;;;;;5.18;2.35;;;;;;;;;;4879519;29;20173;-79
2021/11/07 19:20:52;;;;;;;2.63;1.85;;;;;;;;;;4879736;29;20040;-83
2021/11/07 19:23:18;;;;;;;1.70;1.25;;;;;;;;;;4879736;29;20044;-78
2021/11/07 19:25:43;;;;;;;3.28;2.38;;;;;;;;;;4879434;29;20037;-77
2021/11/07 19:28:09;;;;;;;9.70;5.05;;;;;;;;;;4879478;29;20123;-78
2021/11/07 19:30:36;;;;;;;4.00;2.30;;;;;;;;;;4862615;29;20108;-79
2021/11/07 19:33:02;;;;;;;9.70;5.60;;;;;;;;;;4879656;29;20058;-84
2021/11/07 19:35:30;;;;;;;9.15;4.85;;;;;;;;;;4879286;29;20124;-78
2021/11/07 19:37:56;;;;;;;8.68;4.10;;;;;;;;;;4879570;29;20035;-78
2021/11/07 19:40:24;;;;;;;4.70;2.83;;;;;;;;;;4879251;29;20403;-77
2021/11/07 19:42:50;;;;;;;5.63;3.60;;;;;;;;;;4879519;29;20112;-78
2021/11/07 19:45:18;;;;;;;5.90;4.00;;;;;;;;;;4879354;29;20085;-78
2021/11/07 19:47:46;;;;;;;8.50;5.00;;;;;;;;;;4879448;29;20025;-77
2021/11/07 19:50:13;;;;;;;12.05;4.25;;;;;;;;;;4879529;29;20081;-78
2021/11/07 19:52:43;;;;;;;12.15;8.13;;;;;;;;;;4862528;29;20033;-77
2021/11/07 19:55:11;;;;;;;7.18;5.72;;;;;;;;;;4879101;29;20029;-78
2021/11/07 19:57:37;;;;;;;3.53;2.65;;;;;;;;;;4879233;29;20479;-77
2021/11/07 20:07:51;;;;;;;2.72;2.17;;;;;;;;;;4882368;29;20048;-78
2021/11/07 20:10:18;;;;;;;2.28;2.08;;;;;;;;;;4882392;29;20548;-78
2021/11/07 20:12:43;;;;;;;2.65;2.05;;;;;;;;;;4882777;29;20025;-77
2021/11/07 20:15:10;;;;;;;4.40;2.88;;;;;;;;;;4882238;29;20040;-77
2021/11/07 20:17:35;;;;;;;11.20;9.38;;;;;;;;;;4882643;29;20417;-76
2021/11/07 20:20:04;;;;;;;5.70;4.28;;;;;;;;;;4882464;29;20060;-77
2021/11/07 20:22:29;;;;;;;6.50;4.22;;;;;;;;;;4865705;29;20027;-77
2021/11/07 20:24:56;;;;;;;6.65;4.32;;;;;;;;;;4882076;29;20026;-76
2021/11/07 20:27:29;;;;;;;7.75;5.13;;;;;;;;;;4882481;29;20037;-77
2021/11/07 20:29:56;;;;;;;8.85;6.05;;;;;;;;;;4882305;29;20032;-77
2021/11/07 20:32:24;;;;;;;5.50;4.13;;;;;;;;;;4882189;29;20033;-77
2021/11/07 20:35:02;;;;;;;5.95;4.28;;;;;;;;;;4882168;29;20112;-78
2021/11/07 20:37:31;;;;;;;7.18;5.28;;;;;;;;;;4882236;29;20025;-79
2021/11/07 20:40:05;;;;;;;6.07;3.83;;;;;;;;;;4881925;29;20041;-79
2021/11/07 20:42:36;;;;;;;5.78;3.50;;;;;;;;;;4882054;29;20060;-80
2021/11/07 20:47:56;;;;;;;6.78;4.53;;;;;;;;;;4881820;29;20039;-78
2021/11/07 20:55:58;;;;;;;5.47;3.60;;;;;;;;;;4873652;29;20052;-77
2021/11/07 21:03:39;;;;;;;7.78;4.07;;;;;;;;;;4881760;29;20519;-77
2021/11/07 21:08:58;;;;;;;4.15;3.42;;;;;;;;;;4881377;29;20140;-78
2021/11/07 21:11:29;;;;;;;5.35;3.72;;;;;;;;;;4881389;29;20107;-78
2021/11/07 21:13:59;;;;;;;4.35;3.35;;;;;;;;;;4881632;29;20112;-77
2021/11/07 21:27:07;;;;;;;3.70;2.80;;;;;;;;;;4881248;29;20032;-77
2021/11/07 21:29:32;;;;;;;3.30;2.38;;;;;;;;;;4881204;29;20025;-77
2021/11/07 21:31:57;;;;;;;3.88;2.80;;;;;;;;;;4881404;29;20021;-77
2021/11/07 21:34:30;;;;;;;3.92;2.47;;;;;;;;;;4880926;29;20045;-78
2021/11/07 21:37:08;;;;;;;3.53;2.47;;;;;;;;;;4881200;29;20060;-78
2021/11/07 21:39:50;;;;;;;2.63;2.10;;;;;;;;;;4880790;29;20044;-77
2021/11/07 21:42:19;;;;;;;3.53;2.00;;;;;;;;;;4880848;29;20436;-77
2021/11/07 21:44:45;;;;;;;3.88;2.53;;;;;;;;;;4864144;29;20033;-77
2021/11/07 21:47:19;;;;;;;2.28;2.03;;;;;;;;;;4880774;29;20520;-77
2021/11/07 21:49:45;;;;;;;2.33;1.90;;;;;;;;;;4880878;29;20112;-77
2021/11/07 21:52:11;;;;;;;2.67;2.22;;;;;;;;;;4880595;29;20125;-77
2021/11/07 21:54:37;;;;;;;3.60;2.55;;;;;;;;;;4880652;29;20036;-77
2021/11/07 21:57:04;;;;;;;2.67;2.10;;;;;;;;;;4863896;29;20491;-76
2021/11/07 21:59:30;;;;;;;3.22;2.53;;;;;;;;;;4880484;29;20040;-79
2021/11/07 22:01:55;;;;;;;4.22;2.13;;;;;;;;;;4880997;29;20044;-78
2021/11/07 22:04:21;;;;;;;4.15;2.60;;;;;;;;;;4863625;29;20112;-79
2021/11/07 22:06:49;;;;;;;5.30;3.70;;;;;;;;;;4863645;29;20033;-78
2021/11/07 22:09:16;;;;;;;2.88;1.90;;;;;;;;;;4880447;29;20484;-78
2021/11/07 22:11:44;;;;;;;3.67;2.35;;;;;;;;;;4880623;29;20478;-79
2021/11/07 22:14:11;;;;;;;3.17;2.47;;;;;;;;;;4880211;29;20025;-79
2021/11/07 22:16:46;;;;;;;4.50;2.53;;;;;;;;;;4880573;29;20033;-80
2021/11/07 22:19:18;;;;;;;3.13;2.45;;;;;;;;;;4880084;29;20037;-79
2021/11/07 22:24:18;;;;;;;3.60;2.50;;;;;;;;;;4880208;29;20072;-79
2021/11/07 22:26:45;;;;;;;6.32;3.25;;;;;;;;;;4880129;29;20523;-79
2021/11/07 22:29:24;;;;;;;6.25;3.88;;;;;;;;;;4879767;29;20041;-78
2021/11/07 22:32:03;;;;;;;12.07;5.72;;;;;;;;;;4863482;29;20036;-79
2021/11/07 22:34:34;;;;;;;5.10;3.30;;;;;;;;;;4880423;29;20044;-79
2021/11/07 22:37:01;;;;;;;5.15;2.63;;;;;;;;;;4880170;29;20021;-79
2021/11/07 22:39:34;;;;;;;4.15;2.78;;;;;;;;;;4880105;29;20449;-79
2021/11/07 22:42:00;;;;;;;3.35;2.33;;;;;;;;;;4879889;29;20481;-79
2021/11/07 22:44:26;;;;;;;4.85;2.35;;;;;;;;;;4863229;29;20044;-79
2021/11/07 22:46:52;;;;;;;2.80;2.30;;;;;;;;;;4863096;29;20411;-79
2021/11/07 22:49:24;;;;;;;2.97;2.40;;;;;;;;;;4879939;29;20029;-79
2021/11/07 22:57:44;;;;;;;3.28;2.50;;;;;;;;;;4848305;29;20061;-80
2021/11/07 23:00:19;;;;;;;4.28;2.58;;;;;;;;;;4880167;29;20041;-78
2021/11/07 23:05:34;;;;;;;8.23;4.00;;;;;;;;;;4879901;29;20430;-78
2021/11/07 23:08:14;;;;;;;4.97;2.97;;;;;;;;;;4879475;29;20045;-78
2021/11/07 23:10:39;;;;;;;5.45;3.45;;;;;;;;;;4879731;29;20372;-78
2021/11/07 23:13:05;;;;;;;5.20;2.67;;;;;;;;;;4879754;29;20499;-78
2021/11/07 23:15:32;;;;;;;8.88;3.45;;;;;;;;;;4879607;29;20041;-78
2021/11/07 23:18:00;;;;;;;4.78;3.40;;;;;;;;;;4880042;29;20492;-77
2021/11/07 23:20:26;;;;;;;3.97;2.78;;;;;;;;;;4879710;29;20119;-79
2021/11/07 23:22:55;;;;;;;5.15;3.33;;;;;;;;;;4879459;29;20070;-78
2021/11/07 23:25:28;;;;;;;7.40;2.90;;;;;;;;;;4879567;29;20108;-78
2021/11/07 23:27:56;;;;;;;3.47;2.78;;;;;;;;;;4879811;29;20146;-80
2021/11/07 23:30:32;;;;;;;4.03;3.08;;;;;;;;;;4879603;29;20037;-79
2021/11/07 23:33:07;;;;;;;5.22;2.70;;;;;;;;;;4879493;29;20057;-77
2021/11/07 23:35:33;;;;;;;3.85;2.88;;;;;;;;;;4879448;29;20065;-78
2021/11/07 23:37:59;;;;;;;4.72;2.95;;;;;;;;;;4879533;29;20044;-78
2021/11/07 23:40:31;;;;;;;3.58;2.40;;;;;;;;;;4879453;29;20033;-78
